<?xml version="1.0" encoding="UTF-8" standalone="no" ?>
<gpx xmlns="http://www.topografix.com/GPX/1/1" xmlns:xsi="http://www.w3.org/2001/XMLSchema-instance" xsi:schemaLocation="http://www.topografix.com/GPX/1/1 http://www.topografix.com/GPX/1/1/gpx.xsd" version="1.1" creator="VisuGPX - https://www.visugpx.com">
  <metadata>
    <name>14810963-CHEVREUSE LE PERRAY</name>
  </metadata>
  <trk>
    <name><![CDATA[14810963-CHEVREUSE LE PERRAY]]></name>
    <trkseg>
      <trkpt lat="48.703" lon="2.06961">
        <ele>78</ele>
        <time>2022-09-20T08:29:19Z</time>
      </trkpt>
      <trkpt lat="48.70269" lon="2.06872">
        <ele>79</ele>
        <time>2022-09-20T08:30:48Z</time>
      </trkpt>
      <trkpt lat="48.70211" lon="2.06522">
        <ele>80</ele>
        <time>2022-09-20T08:36:05Z</time>
      </trkpt>
      <trkpt lat="48.70213" lon="2.06352">
        <ele>82</ele>
        <time>2022-09-20T08:38:35Z</time>
      </trkpt>
      <trkpt lat="48.70253" lon="2.05989">
        <ele>88</ele>
        <time>2022-09-20T08:43:59Z</time>
      </trkpt>
      <trkpt lat="48.70243" lon="2.05768">
        <ele>84</ele>
        <time>2022-09-20T08:47:14Z</time>
      </trkpt>
      <trkpt lat="48.70212" lon="2.05583">
        <ele>84</ele>
        <time>2022-09-20T08:50:03Z</time>
      </trkpt>
      <trkpt lat="48.70211" lon="2.05573">
        <ele>84</ele>
        <time>2022-09-20T08:50:11Z</time>
      </trkpt>
      <trkpt lat="48.70095" lon="2.05654">
        <ele>97</ele>
        <time>2022-09-20T08:53:02Z</time>
      </trkpt>
      <trkpt lat="48.70015" lon="2.05608">
        <ele>106</ele>
        <time>2022-09-20T08:54:56Z</time>
      </trkpt>
      <trkpt lat="48.69869" lon="2.05575">
        <ele>132</ele>
        <time>2022-09-20T08:58:13Z</time>
      </trkpt>
      <trkpt lat="48.69819" lon="2.0544">
        <ele>141</ele>
        <time>2022-09-20T09:00:29Z</time>
      </trkpt>
      <trkpt lat="48.69708" lon="2.05358">
        <ele>163</ele>
        <time>2022-09-20T09:03:14Z</time>
      </trkpt>
      <trkpt lat="48.69645" lon="2.05353">
        <ele>169</ele>
        <time>2022-09-20T09:04:38Z</time>
      </trkpt>
      <trkpt lat="48.69661" lon="2.03835">
        <ele>171</ele>
        <time>2022-09-20T09:26:56Z</time>
      </trkpt>
      <trkpt lat="48.69211" lon="2.03534">
        <ele>160</ele>
        <time>2022-09-20T09:37:52Z</time>
      </trkpt>
      <trkpt lat="48.69134" lon="2.0343">
        <ele>161</ele>
        <time>2022-09-20T09:40:10Z</time>
      </trkpt>
      <trkpt lat="48.69146" lon="2.03145">
        <ele>167</ele>
        <time>2022-09-20T09:44:21Z</time>
      </trkpt>
      <trkpt lat="48.68937" lon="2.02465">
        <ele>171</ele>
        <time>2022-09-20T09:55:22Z</time>
      </trkpt>
      <trkpt lat="48.69021" lon="2.02273">
        <ele>149</ele>
        <time>2022-09-20T09:58:45Z</time>
      </trkpt>
      <trkpt lat="48.69073" lon="2.02186">
        <ele>137</ele>
        <time>2022-09-20T10:00:28Z</time>
      </trkpt>
      <trkpt lat="48.69002" lon="2.02095">
        <ele>125</ele>
        <time>2022-09-20T10:02:32Z</time>
      </trkpt>
      <trkpt lat="48.68923" lon="2.02077">
        <ele>124</ele>
        <time>2022-09-20T10:04:19Z</time>
      </trkpt>
      <trkpt lat="48.68876" lon="2.02061">
        <ele>119</ele>
        <time>2022-09-20T10:05:23Z</time>
      </trkpt>
      <trkpt lat="48.68835" lon="2.02081">
        <ele>118</ele>
        <time>2022-09-20T10:06:21Z</time>
      </trkpt>
      <trkpt lat="48.68729" lon="2.01864">
        <ele>115</ele>
        <time>2022-09-20T10:10:19Z</time>
      </trkpt>
      <trkpt lat="48.68876" lon="2.01688">
        <ele>110</ele>
        <time>2022-09-20T10:14:29Z</time>
      </trkpt>
      <trkpt lat="48.69071" lon="2.01529">
        <ele>114</ele>
        <time>2022-09-20T10:19:24Z</time>
      </trkpt>
      <trkpt lat="48.68741" lon="2.0079">
        <ele>153</ele>
        <time>2022-09-20T10:32:30Z</time>
      </trkpt>
      <trkpt lat="48.68848" lon="2.00446">
        <ele>160</ele>
        <time>2022-09-20T10:38:05Z</time>
      </trkpt>
      <trkpt lat="48.68857" lon="2.00359">
        <ele>165</ele>
        <time>2022-09-20T10:39:23Z</time>
      </trkpt>
      <trkpt lat="48.68863" lon="2.00317">
        <ele>167</ele>
        <time>2022-09-20T10:40:01Z</time>
      </trkpt>
      <trkpt lat="48.68833" lon="2.00289">
        <ele>167</ele>
        <time>2022-09-20T10:40:48Z</time>
      </trkpt>
      <trkpt lat="48.68832" lon="1.99643">
        <ele>173</ele>
        <time>2022-09-20T10:50:17Z</time>
      </trkpt>
      <trkpt lat="48.68854" lon="1.99506">
        <ele>172</ele>
        <time>2022-09-20T10:52:21Z</time>
      </trkpt>
      <trkpt lat="48.68898" lon="1.99312">
        <ele>172</ele>
        <time>2022-09-20T10:55:22Z</time>
      </trkpt>
      <trkpt lat="48.68756" lon="1.99258">
        <ele>174</ele>
        <time>2022-09-20T10:58:37Z</time>
      </trkpt>
      <trkpt lat="48.68682" lon="1.99224">
        <ele>174</ele>
        <time>2022-09-20T11:00:20Z</time>
      </trkpt>
      <trkpt lat="48.68552" lon="1.992">
        <ele>172</ele>
        <time>2022-09-20T11:03:15Z</time>
      </trkpt>
      <trkpt lat="48.68474" lon="1.99102">
        <ele>171</ele>
        <time>2022-09-20T11:05:30Z</time>
      </trkpt>
      <trkpt lat="48.68538" lon="1.989">
        <ele>172</ele>
        <time>2022-09-20T11:08:48Z</time>
      </trkpt>
      <trkpt lat="48.68541" lon="1.98874">
        <ele>173</ele>
        <time>2022-09-20T11:09:11Z</time>
      </trkpt>
      <trkpt lat="48.68701" lon="1.98664">
        <ele>151</ele>
        <time>2022-09-20T11:13:53Z</time>
      </trkpt>
      <trkpt lat="48.68793" lon="1.98423">
        <ele>126</ele>
        <time>2022-09-20T11:17:59Z</time>
      </trkpt>
      <trkpt lat="48.68827" lon="1.98323">
        <ele>112</ele>
        <time>2022-09-20T11:19:38Z</time>
      </trkpt>
      <trkpt lat="48.68906" lon="1.98265">
        <ele>105</ele>
        <time>2022-09-20T11:21:35Z</time>
      </trkpt>
      <trkpt lat="48.68953" lon="1.98289">
        <ele>105</ele>
        <time>2022-09-20T11:22:41Z</time>
      </trkpt>
      <trkpt lat="48.68924" lon="1.9828">
        <ele>105</ele>
        <time>2022-09-20T11:23:21Z</time>
      </trkpt>
      <trkpt lat="48.68941" lon="1.9815">
        <ele>98</ele>
        <time>2022-09-20T11:25:17Z</time>
      </trkpt>
      <trkpt lat="48.68841" lon="1.9811">
        <ele>101</ele>
        <time>2022-09-20T11:27:35Z</time>
      </trkpt>
      <trkpt lat="48.68797" lon="1.98047">
        <ele>100</ele>
        <time>2022-09-20T11:28:56Z</time>
      </trkpt>
      <trkpt lat="48.68929" lon="1.97773">
        <ele>100</ele>
        <time>2022-09-20T11:33:55Z</time>
      </trkpt>
      <trkpt lat="48.68849" lon="1.9767">
        <ele>101</ele>
        <time>2022-09-20T11:36:15Z</time>
      </trkpt>
      <trkpt lat="48.68853" lon="1.975">
        <ele>107</ele>
        <time>2022-09-20T11:38:45Z</time>
      </trkpt>
      <trkpt lat="48.68791" lon="1.97472">
        <ele>107</ele>
        <time>2022-09-20T11:40:11Z</time>
      </trkpt>
      <trkpt lat="48.6877" lon="1.97221">
        <ele>111</ele>
        <time>2022-09-20T11:43:54Z</time>
      </trkpt>
      <trkpt lat="48.6881" lon="1.97169">
        <ele>114</ele>
        <time>2022-09-20T11:45:04Z</time>
      </trkpt>
      <trkpt lat="48.68853" lon="1.97109">
        <ele>116</ele>
        <time>2022-09-20T11:46:22Z</time>
      </trkpt>
      <trkpt lat="48.6885" lon="1.97099">
        <ele>116</ele>
        <time>2022-09-20T11:46:32Z</time>
      </trkpt>
      <trkpt lat="48.68859" lon="1.96873">
        <ele>119</ele>
        <time>2022-09-20T11:49:52Z</time>
      </trkpt>
      <trkpt lat="48.68964" lon="1.96431">
        <ele>148</ele>
        <time>2022-09-20T11:56:45Z</time>
      </trkpt>
      <trkpt lat="48.69016" lon="1.96387">
        <ele>156</ele>
        <time>2022-09-20T11:58:05Z</time>
      </trkpt>
      <trkpt lat="48.68986" lon="1.96293">
        <ele>153</ele>
        <time>2022-09-20T11:59:37Z</time>
      </trkpt>
      <trkpt lat="48.6896" lon="1.96255">
        <ele>151</ele>
        <time>2022-09-20T12:00:25Z</time>
      </trkpt>
      <trkpt lat="48.68885" lon="1.9628">
        <ele>145</ele>
        <time>2022-09-20T12:02:08Z</time>
      </trkpt>
      <trkpt lat="48.68852" lon="1.96263">
        <ele>147</ele>
        <time>2022-09-20T12:02:54Z</time>
      </trkpt>
      <trkpt lat="48.68789" lon="1.96317">
        <ele>147</ele>
        <time>2022-09-20T12:04:31Z</time>
      </trkpt>
      <trkpt lat="48.68661" lon="1.96262">
        <ele>156</ele>
        <time>2022-09-20T12:07:28Z</time>
      </trkpt>
      <trkpt lat="48.68629" lon="1.96224">
        <ele>159</ele>
        <time>2022-09-20T12:08:23Z</time>
      </trkpt>
      <trkpt lat="48.68608" lon="1.96192">
        <ele>163</ele>
        <time>2022-09-20T12:09:02Z</time>
      </trkpt>
      <trkpt lat="48.68655" lon="1.96041">
        <ele>176</ele>
        <time>2022-09-20T12:11:29Z</time>
      </trkpt>
      <trkpt lat="48.68646" lon="1.95974">
        <ele>174</ele>
        <time>2022-09-20T12:12:30Z</time>
      </trkpt>
      <trkpt lat="48.68626" lon="1.9597">
        <ele>174</ele>
        <time>2022-09-20T12:12:57Z</time>
      </trkpt>
      <trkpt lat="48.68609" lon="1.95947">
        <ele>173</ele>
        <time>2022-09-20T12:13:27Z</time>
      </trkpt>
      <trkpt lat="48.68596" lon="1.95931">
        <ele>172</ele>
        <time>2022-09-20T12:13:49Z</time>
      </trkpt>
      <trkpt lat="48.68587" lon="1.95929">
        <ele>172</ele>
        <time>2022-09-20T12:14:01Z</time>
      </trkpt>
      <trkpt lat="48.68561" lon="1.95928">
        <ele>169</ele>
        <time>2022-09-20T12:14:36Z</time>
      </trkpt>
      <trkpt lat="48.68507" lon="1.96067">
        <ele>162</ele>
        <time>2022-09-20T12:16:58Z</time>
      </trkpt>
      <trkpt lat="48.68465" lon="1.9611">
        <ele>161</ele>
        <time>2022-09-20T12:18:06Z</time>
      </trkpt>
      <trkpt lat="48.68112" lon="1.96287">
        <ele>168</ele>
        <time>2022-09-20T12:26:22Z</time>
      </trkpt>
      <trkpt lat="48.67944" lon="1.96316">
        <ele>176</ele>
        <time>2022-09-20T12:30:08Z</time>
      </trkpt>
      <trkpt lat="48.67876" lon="1.96311">
        <ele>172</ele>
        <time>2022-09-20T12:31:39Z</time>
      </trkpt>
      <trkpt lat="48.67807" lon="1.96223">
        <ele>169</ele>
        <time>2022-09-20T12:33:39Z</time>
      </trkpt>
      <trkpt lat="48.67764" lon="1.96138">
        <ele>157</ele>
        <time>2022-09-20T12:35:13Z</time>
      </trkpt>
      <trkpt lat="48.67917" lon="1.95844">
        <ele>176</ele>
        <time>2022-09-20T12:40:43Z</time>
      </trkpt>
      <trkpt lat="48.67961" lon="1.95696">
        <ele>169</ele>
        <time>2022-09-20T12:43:06Z</time>
      </trkpt>
      <trkpt lat="48.6804" lon="1.95423">
        <ele>166</ele>
        <time>2022-09-20T12:47:29Z</time>
      </trkpt>
      <trkpt lat="48.68089" lon="1.95267">
        <ele>166</ele>
        <time>2022-09-20T12:50:01Z</time>
      </trkpt>
      <trkpt lat="48.68133" lon="1.95138">
        <ele>166</ele>
        <time>2022-09-20T12:52:09Z</time>
      </trkpt>
      <trkpt lat="48.6815" lon="1.95031">
        <ele>163</ele>
        <time>2022-09-20T12:53:46Z</time>
      </trkpt>
      <trkpt lat="48.68219" lon="1.94947">
        <ele>168</ele>
        <time>2022-09-20T12:55:44Z</time>
      </trkpt>
      <trkpt lat="48.68334" lon="1.94819">
        <ele>174</ele>
        <time>2022-09-20T12:58:54Z</time>
      </trkpt>
      <trkpt lat="48.68299" lon="1.94885">
        <ele>173</ele>
        <time>2022-09-20T13:00:09Z</time>
      </trkpt>
      <trkpt lat="48.68328" lon="1.948">
        <ele>174</ele>
        <time>2022-09-20T13:01:33Z</time>
      </trkpt>
      <trkpt lat="48.68561" lon="1.94332">
        <ele>171</ele>
        <time>2022-09-20T13:10:10Z</time>
      </trkpt>
      <trkpt lat="48.68721" lon="1.93962">
        <ele>175</ele>
        <time>2022-09-20T13:16:39Z</time>
      </trkpt>
      <trkpt lat="48.68653" lon="1.93895">
        <ele>167</ele>
        <time>2022-09-20T13:18:28Z</time>
      </trkpt>
      <trkpt lat="48.68561" lon="1.93944">
        <ele>160</ele>
        <time>2022-09-20T13:20:38Z</time>
      </trkpt>
      <trkpt lat="48.68509" lon="1.94029">
        <ele>159</ele>
        <time>2022-09-20T13:22:20Z</time>
      </trkpt>
      <trkpt lat="48.68457" lon="1.94004">
        <ele>147</ele>
        <time>2022-09-20T13:23:33Z</time>
      </trkpt>
      <trkpt lat="48.68456" lon="1.93925">
        <ele>139</ele>
        <time>2022-09-20T13:24:42Z</time>
      </trkpt>
      <trkpt lat="48.68593" lon="1.9381">
        <ele>153</ele>
        <time>2022-09-20T13:28:11Z</time>
      </trkpt>
      <trkpt lat="48.68585" lon="1.93745">
        <ele>145</ele>
        <time>2022-09-20T13:29:10Z</time>
      </trkpt>
      <trkpt lat="48.68521" lon="1.93707">
        <ele>130</ele>
        <time>2022-09-20T13:30:41Z</time>
      </trkpt>
      <trkpt lat="48.68561" lon="1.93525">
        <ele>128</ele>
        <time>2022-09-20T13:33:30Z</time>
      </trkpt>
      <trkpt lat="48.68609" lon="1.93415">
        <ele>135</ele>
        <time>2022-09-20T13:35:26Z</time>
      </trkpt>
      <trkpt lat="48.68689" lon="1.93373">
        <ele>145</ele>
        <time>2022-09-20T13:37:19Z</time>
      </trkpt>
      <trkpt lat="48.68653" lon="1.93234">
        <ele>138</ele>
        <time>2022-09-20T13:39:31Z</time>
      </trkpt>
      <trkpt lat="48.68672" lon="1.93035">
        <ele>137</ele>
        <time>2022-09-20T13:42:28Z</time>
      </trkpt>
      <trkpt lat="48.68725" lon="1.92857">
        <ele>135</ele>
        <time>2022-09-20T13:45:20Z</time>
      </trkpt>
      <trkpt lat="48.68857" lon="1.92578">
        <ele>141</ele>
        <time>2022-09-20T13:50:23Z</time>
      </trkpt>
      <trkpt lat="48.68978" lon="1.9276">
        <ele>161</ele>
        <time>2022-09-20T13:54:10Z</time>
      </trkpt>
      <trkpt lat="48.69184" lon="1.92764">
        <ele>174</ele>
        <time>2022-09-20T13:58:45Z</time>
      </trkpt>
      <trkpt lat="48.69058" lon="1.92651">
        <ele>174</ele>
        <time>2022-09-20T14:02:00Z</time>
      </trkpt>
      <trkpt lat="48.69118" lon="1.92197">
        <ele>167</ele>
        <time>2022-09-20T14:08:48Z</time>
      </trkpt>
      <trkpt lat="48.69141" lon="1.92053">
        <ele>167</ele>
        <time>2022-09-20T14:10:59Z</time>
      </trkpt>
      <trkpt lat="48.69154" lon="1.92099">
        <ele>173</ele>
        <time>2022-09-20T14:11:43Z</time>
      </trkpt>
      <trkpt lat="48.69194" lon="1.92055">
        <ele>173</ele>
        <time>2022-09-20T14:12:49Z</time>
      </trkpt>
      <trkpt lat="48.69266" lon="1.92044">
        <ele>175</ele>
        <time>2022-09-20T14:14:25Z</time>
      </trkpt>
      <trkpt lat="48.69342" lon="1.91729">
        <ele>166</ele>
        <time>2022-09-20T14:19:21Z</time>
      </trkpt>
      <trkpt lat="48.69346" lon="1.91682">
        <ele>159</ele>
        <time>2022-09-20T14:20:03Z</time>
      </trkpt>
      <trkpt lat="48.69401" lon="1.91696">
        <ele>158</ele>
        <time>2022-09-20T14:21:17Z</time>
      </trkpt>
      <trkpt lat="48.69422" lon="1.91631">
        <ele>150</ele>
        <time>2022-09-20T14:22:21Z</time>
      </trkpt>
      <trkpt lat="48.69452" lon="1.91601">
        <ele>150</ele>
        <time>2022-09-20T14:23:09Z</time>
      </trkpt>
      <trkpt lat="48.69486" lon="1.91651">
        <ele>154</ele>
        <time>2022-09-20T14:24:12Z</time>
      </trkpt>
      <trkpt lat="48.6955" lon="1.91588">
        <ele>164</ele>
        <time>2022-09-20T14:25:54Z</time>
      </trkpt>
      <trkpt lat="48.69645" lon="1.91585">
        <ele>174</ele>
        <time>2022-09-20T14:28:01Z</time>
      </trkpt>
      <trkpt lat="48.6979" lon="1.91743">
        <ele>178</ele>
        <time>2022-09-20T14:31:59Z</time>
      </trkpt>
      <trkpt lat="48.69891" lon="1.91765">
        <ele>180</ele>
        <time>2022-09-20T14:34:15Z</time>
      </trkpt>
      <trkpt lat="48.69949" lon="1.91733">
        <ele>180</ele>
        <time>2022-09-20T14:35:38Z</time>
      </trkpt>
      <trkpt lat="48.70011" lon="1.91546">
        <ele>180</ele>
        <time>2022-09-20T14:38:42Z</time>
      </trkpt>
      <trkpt lat="48.69967" lon="1.91463">
        <ele>169</ele>
        <time>2022-09-20T14:40:16Z</time>
      </trkpt>
      <trkpt lat="48.69923" lon="1.91455">
        <ele>156</ele>
        <time>2022-09-20T14:41:15Z</time>
      </trkpt>
      <trkpt lat="48.69917" lon="1.91402">
        <ele>153</ele>
        <time>2022-09-20T14:42:02Z</time>
      </trkpt>
      <trkpt lat="48.69887" lon="1.91323">
        <ele>145</ele>
        <time>2022-09-20T14:43:22Z</time>
      </trkpt>
      <trkpt lat="48.69863" lon="1.91328">
        <ele>141</ele>
        <time>2022-09-20T14:43:55Z</time>
      </trkpt>
      <trkpt lat="48.69923" lon="1.91182">
        <ele>145</ele>
        <time>2022-09-20T14:46:26Z</time>
      </trkpt>
      <trkpt lat="48.69967" lon="1.90842">
        <ele>146</ele>
        <time>2022-09-20T14:51:31Z</time>
      </trkpt>
      <trkpt lat="48.70027" lon="1.90719">
        <ele>148</ele>
        <time>2022-09-20T14:53:46Z</time>
      </trkpt>
      <trkpt lat="48.70087" lon="1.90679">
        <ele>155</ele>
        <time>2022-09-20T14:55:14Z</time>
      </trkpt>
      <trkpt lat="48.70057" lon="1.90649">
        <ele>150</ele>
        <time>2022-09-20T14:56:01Z</time>
      </trkpt>
      <trkpt lat="48.70015" lon="1.90357">
        <ele>146</ele>
        <time>2022-09-20T15:00:25Z</time>
      </trkpt>
      <trkpt lat="48.70015" lon="1.89932">
        <ele>144</ele>
        <time>2022-09-20T15:06:39Z</time>
      </trkpt>
      <trkpt lat="48.70099" lon="1.89853">
        <ele>148</ele>
        <time>2022-09-20T15:08:51Z</time>
      </trkpt>
      <trkpt lat="48.70127" lon="1.89786">
        <ele>148</ele>
        <time>2022-09-20T15:10:01Z</time>
      </trkpt>
      <trkpt lat="48.70235" lon="1.89592">
        <ele>147</ele>
        <time>2022-09-20T15:13:44Z</time>
      </trkpt>
      <trkpt lat="48.70336" lon="1.89483">
        <ele>153</ele>
        <time>2022-09-20T15:16:30Z</time>
      </trkpt>
      <trkpt lat="48.70235" lon="1.89295">
        <ele>142</ele>
        <time>2022-09-20T15:20:03Z</time>
      </trkpt>
      <trkpt lat="48.70191" lon="1.8921">
        <ele>143</ele>
        <time>2022-09-20T15:21:38Z</time>
      </trkpt>
      <trkpt lat="48.70238" lon="1.89007">
        <ele>143</ele>
        <time>2022-09-20T15:24:48Z</time>
      </trkpt>
      <trkpt lat="48.7032" lon="1.88882">
        <ele>146</ele>
        <time>2022-09-20T15:27:23Z</time>
      </trkpt>
      <trkpt lat="48.7039" lon="1.88796">
        <ele>151</ele>
        <time>2022-09-20T15:29:23Z</time>
      </trkpt>
      <trkpt lat="48.70401" lon="1.88552">
        <ele>151</ele>
        <time>2022-09-20T15:32:59Z</time>
      </trkpt>
      <trkpt lat="48.70259" lon="1.88554">
        <ele>150</ele>
        <time>2022-09-20T15:36:08Z</time>
      </trkpt>
      <trkpt lat="48.70135" lon="1.88457">
        <ele>151</ele>
        <time>2022-09-20T15:39:14Z</time>
      </trkpt>
      <trkpt lat="48.70073" lon="1.88459">
        <ele>152</ele>
        <time>2022-09-20T15:40:37Z</time>
      </trkpt>
      <trkpt lat="48.70003" lon="1.8819">
        <ele>148</ele>
        <time>2022-09-20T15:44:52Z</time>
      </trkpt>
      <trkpt lat="48.69835" lon="1.87947">
        <ele>154</ele>
        <time>2022-09-20T15:50:02Z</time>
      </trkpt>
      <trkpt lat="48.69811" lon="1.87668">
        <ele>160</ele>
        <time>2022-09-20T15:54:10Z</time>
      </trkpt>
      <trkpt lat="48.69727" lon="1.87492">
        <ele>161</ele>
        <time>2022-09-20T15:57:21Z</time>
      </trkpt>
      <trkpt lat="48.69639" lon="1.8708">
        <ele>169</ele>
        <time>2022-09-20T16:03:42Z</time>
      </trkpt>
      <trkpt lat="48.69506" lon="1.86982">
        <ele>175</ele>
        <time>2022-09-20T16:07:00Z</time>
      </trkpt>
      <trkpt lat="48.69402" lon="1.86776">
        <ele>172</ele>
        <time>2022-09-20T16:10:48Z</time>
      </trkpt>
      <trkpt lat="48.6949" lon="1.86521">
        <ele>171</ele>
        <time>2022-09-20T16:15:02Z</time>
      </trkpt>
      <trkpt lat="48.69558" lon="1.8657">
        <ele>172</ele>
        <time>2022-09-20T16:16:42Z</time>
      </trkpt>
      <trkpt lat="48.69654" lon="1.8621">
        <ele>173</ele>
        <time>2022-09-20T16:22:24Z</time>
      </trkpt>
      <trkpt lat="48.69703" lon="1.85894">
        <ele>174</ele>
        <time>2022-09-20T16:27:10Z</time>
      </trkpt>
      <trkpt lat="48.69527" lon="1.85784">
        <ele>173</ele>
        <time>2022-09-20T16:31:24Z</time>
      </trkpt>
      <trkpt lat="48.69391" lon="1.85738">
        <ele>175</ele>
        <time>2022-09-20T16:34:30Z</time>
      </trkpt>
      <trkpt lat="48.69339" lon="1.8572">
        <ele>175</ele>
        <time>2022-09-20T16:35:41Z</time>
      </trkpt>
    </trkseg>
  </trk>
</gpx>